createdAt,value
2018-07-19T00:04:10.071Z,18.00
2018-07-19T00:09:39.373Z,17.90
2018-07-19T00:15:08.796Z,17.80
2018-07-19T00:20:38.027Z,17.80
2018-07-19T00:26:08.390Z,17.70
2018-07-19T00:31:37.586Z,17.70
2018-07-19T00:37:12.560Z,17.60
2018-07-19T00:42:41.902Z,17.60
2018-07-19T00:48:12.216Z,17.50
2018-07-19T00:53:41.463Z,17.40
2018-07-19T00:59:10.791Z,17.40
2018-07-19T01:04:40.056Z,17.30
2018-07-19T01:10:10.682Z,17.20
2018-07-19T01:15:39.978Z,17.20
2018-07-19T01:21:09.238Z,17.10
2018-07-19T01:26:38.475Z,17.10
2018-07-19T01:32:08.003Z,17.10
2018-07-19T01:37:37.219Z,17.10
2018-07-19T01:43:06.429Z,17.00
2018-07-19T01:48:35.667Z,16.90
2018-07-19T01:54:05.124Z,16.80
2018-07-19T01:59:34.572Z,16.80
2018-07-19T02:05:04.217Z,16.70
2018-07-19T02:10:33.450Z,16.60
2018-07-19T02:16:02.721Z,16.50
2018-07-19T02:21:31.989Z,16.40
2018-07-19T02:27:02.047Z,16.40
2018-07-19T02:32:32.083Z,16.40
2018-07-19T02:38:01.320Z,16.40
2018-07-19T02:43:31.675Z,16.30
2018-07-19T02:49:01.073Z,16.30
2018-07-19T02:54:31.037Z,16.20
2018-07-19T03:00:03.806Z,16.20
2018-07-19T03:05:34.162Z,16.20
2018-07-19T03:11:03.425Z,16.20
2018-07-19T03:16:32.793Z,16.10
2018-07-19T03:22:02.079Z,16.00
2018-07-19T03:27:31.298Z,16.00
2018-07-19T03:33:00.553Z,16.00
2018-07-19T03:38:29.871Z,15.90
2018-07-19T03:43:59.183Z,15.80
2018-07-19T03:49:28.407Z,15.80
2018-07-19T03:54:57.674Z,15.80
2018-07-19T04:00:26.980Z,15.80
2018-07-19T04:05:56.320Z,15.80
2018-07-19T04:11:25.569Z,15.70
2018-07-19T04:16:54.895Z,15.70
2018-07-19T04:22:24.372Z,15.80
2018-07-19T04:27:54.443Z,15.80
2018-07-19T04:33:24.757Z,15.80
2018-07-19T04:38:54.024Z,15.90
2018-07-19T04:44:23.395Z,16.00
2018-07-19T04:49:53.863Z,16.10
2018-07-19T04:55:24.294Z,16.10
2018-07-19T05:00:53.558Z,16.20
2018-07-19T05:06:22.832Z,16.50
2018-07-19T05:11:54.317Z,16.80
2018-07-19T05:17:23.529Z,17.00
2018-07-19T05:22:52.805Z,17.30
2018-07-19T05:28:22.212Z,17.60
2018-07-19T05:33:52.685Z,17.70
2018-07-19T05:39:22.100Z,17.90
2018-07-19T05:44:51.522Z,18.10
2018-07-19T05:50:20.969Z,18.20
2018-07-19T05:55:50.332Z,18.40
2018-07-19T06:01:19.852Z,18.60
2018-07-19T06:06:49.107Z,18.70
2018-07-19T06:12:18.479Z,18.80
2018-07-19T06:28:48.072Z,19.20
2018-07-19T06:34:17.399Z,19.50
2018-07-19T06:39:46.705Z,19.70
2018-07-19T06:45:17.159Z,19.70
2018-07-19T06:50:46.483Z,19.80
2018-07-19T06:56:15.753Z,20.10
2018-07-19T07:01:45.062Z,20.40
2018-07-19T07:07:14.320Z,20.70
2018-07-19T07:12:43.513Z,20.80
2018-07-19T07:18:12.753Z,20.90
2018-07-19T07:23:41.997Z,21.20
2018-07-19T07:29:12.311Z,21.50
2018-07-19T07:34:41.548Z,21.60
2018-07-19T07:40:10.785Z,21.60
2018-07-19T07:45:40.875Z,21.80
2018-07-19T07:51:10.393Z,22.00
2018-07-19T07:56:39.623Z,22.30
2018-07-19T08:02:09.272Z,22.70
2018-07-19T08:07:38.512Z,22.90
2018-07-19T08:13:07.764Z,23.10
2018-07-19T08:18:37.075Z,23.20
2018-07-19T08:24:06.354Z,23.40
2018-07-19T08:29:35.574Z,23.30
2018-07-19T08:35:05.439Z,23.50
2018-07-19T08:40:34.658Z,23.70
2018-07-19T08:51:36.286Z,23.90
2018-07-19T08:57:05.576Z,24.00
2018-07-19T09:02:34.836Z,24.30
2018-07-19T09:08:04.087Z,24.40
2018-07-19T09:13:33.324Z,24.60
2018-07-19T09:19:02.560Z,24.70
2018-07-19T09:24:31.770Z,24.90
2018-07-19T09:30:00.987Z,25.00
2018-07-19T09:35:30.213Z,25.20
2018-07-19T09:40:59.474Z,25.30
2018-07-19T09:46:28.696Z,25.30
2018-07-19T09:51:57.962Z,25.40
2018-07-19T09:57:28.249Z,25.50
2018-07-19T10:02:57.471Z,25.70
2018-07-19T10:08:26.689Z,25.90
2018-07-19T10:13:55.897Z,25.90
2018-07-19T10:19:25.135Z,26.00
2018-07-19T10:24:54.352Z,26.00
2018-07-19T10:30:23.612Z,26.20
2018-07-19T10:35:52.912Z,26.20
2018-07-19T10:41:22.190Z,26.30
2018-07-19T10:46:51.503Z,26.50
2018-07-19T10:52:21.505Z,26.60
2018-07-19T10:57:50.884Z,26.70
2018-07-19T11:03:20.295Z,26.80
2018-07-19T11:08:49.675Z,26.90
2018-07-19T11:14:19.039Z,27.00
2018-07-19T11:19:48.419Z,27.20
2018-07-19T11:25:17.691Z,27.40
2018-07-19T11:30:47.000Z,27.50
2018-07-19T11:36:18.079Z,27.60
2018-07-19T11:41:47.384Z,27.90
2018-07-19T11:47:16.733Z,28.10
2018-07-19T11:52:45.998Z,28.10
2018-07-19T11:58:17.442Z,28.10
2018-07-19T12:03:46.668Z,28.20
2018-07-19T12:09:16.236Z,28.60
2018-07-19T12:14:45.510Z,28.80
2018-07-19T12:20:14.777Z,28.90
2018-07-19T12:25:44.246Z,28.90
2018-07-19T12:31:13.549Z,28.70
2018-07-19T12:36:42.883Z,28.80
2018-07-19T12:42:12.153Z,28.70
2018-07-19T12:47:41.429Z,28.80
2018-07-19T12:53:10.729Z,28.90
2018-07-19T12:58:39.987Z,28.80
2018-07-19T13:04:09.362Z,28.50
2018-07-19T13:09:38.547Z,28.60
2018-07-19T13:15:08.226Z,28.70
2018-07-19T13:20:37.531Z,28.90
2018-07-19T13:26:07.193Z,29.00
2018-07-19T13:31:36.388Z,28.30
2018-07-19T13:37:05.915Z,28.10
2018-07-19T13:42:35.224Z,28.20
2018-07-19T13:48:04.438Z,28.50
2018-07-19T13:53:50.624Z,28.70
2018-07-19T13:59:19.936Z,28.70
2018-07-19T14:04:49.226Z,28.80
2018-07-19T14:10:18.530Z,28.90
2018-07-19T14:15:47.791Z,28.90
2018-07-19T14:21:17.143Z,28.90
2018-07-19T14:26:46.426Z,29.00
2018-07-19T14:32:16.285Z,29.20
2018-07-19T14:37:45.617Z,29.20
2018-07-19T14:43:14.938Z,29.20
2018-07-19T14:54:13.092Z,29.20
2018-07-19T14:59:42.272Z,29.90
2018-07-19T15:10:40.405Z,34.20
2018-07-19T15:16:09.602Z,33.40
2018-07-19T15:21:38.811Z,32.20
2018-07-19T15:27:08.106Z,31.10
2018-07-19T15:32:37.371Z,30.20
2018-07-19T15:38:08.733Z,29.70
2018-07-19T15:43:38.044Z,29.30
2018-07-19T15:49:07.236Z,29.00
2018-07-19T15:54:36.487Z,28.80
2018-07-19T16:00:06.438Z,28.70
2018-07-19T16:05:35.651Z,28.40
2018-07-19T16:11:04.926Z,28.20
2018-07-19T16:16:34.198Z,28.30
2018-07-19T16:22:03.438Z,28.10
2018-07-19T16:27:32.787Z,27.90
2018-07-19T16:33:02.039Z,27.70
2018-07-19T16:38:31.303Z,27.50
2018-07-19T16:44:00.518Z,27.40
2018-07-19T16:49:29.793Z,27.30
2018-07-19T16:54:59.064Z,27.30
2018-07-19T17:00:28.265Z,27.30
2018-07-19T17:05:59.396Z,27.20
2018-07-19T17:11:29.731Z,27.50
2018-07-19T17:16:59.809Z,27.60
2018-07-19T17:22:30.014Z,27.40
2018-07-19T17:28:00.326Z,27.20
2018-07-19T17:33:29.532Z,27.00
2018-07-19T17:38:58.791Z,26.80
2018-07-19T17:44:28.153Z,26.60
2018-07-19T17:49:57.361Z,26.40
2018-07-19T17:55:26.656Z,26.20
2018-07-19T18:00:56.007Z,26.10
2018-07-19T18:06:28.448Z,25.90
2018-07-19T18:11:57.717Z,25.80
2018-07-19T18:17:27.039Z,25.70
2018-07-19T18:22:56.286Z,25.60
2018-07-19T18:28:25.605Z,25.40
2018-07-19T18:33:54.868Z,25.30
2018-07-19T18:39:24.211Z,25.20
2018-07-19T18:44:53.595Z,25.10
2018-07-19T18:50:22.882Z,24.90
2018-07-19T18:55:52.305Z,24.80
2018-07-19T19:01:21.808Z,24.70
2018-07-19T19:06:51.299Z,24.50
2018-07-19T19:12:20.655Z,24.30
2018-07-19T19:17:50.070Z,24.20
2018-07-19T19:23:19.716Z,24.00
2018-07-19T19:28:49.166Z,23.90
2018-07-19T19:34:18.566Z,23.80
2018-07-19T19:39:47.874Z,23.60
2018-07-19T19:45:17.239Z,23.50
2018-07-19T19:50:47.675Z,23.30
2018-07-19T19:56:17.047Z,23.20
2018-07-19T20:01:46.484Z,23.00
2018-07-19T20:07:15.911Z,22.90
2018-07-19T20:12:45.389Z,22.70
2018-07-19T20:18:14.652Z,22.50
2018-07-19T20:23:44.059Z,22.40
2018-07-19T20:29:13.445Z,22.20
2018-07-19T20:34:42.745Z,22.10
2018-07-19T20:40:12.025Z,21.90
2018-07-19T20:45:42.352Z,22.10
2018-07-19T20:51:11.694Z,21.80
2018-07-19T20:56:41.011Z,21.60
2018-07-19T21:02:10.296Z,21.40
2018-07-19T21:07:39.536Z,21.30
2018-07-19T21:13:08.795Z,21.10
2018-07-19T21:18:38.892Z,21.00
2018-07-19T21:24:08.123Z,20.80
2018-07-19T21:29:37.379Z,20.70
2018-07-19T21:35:09.030Z,20.60
2018-07-19T21:40:40.452Z,20.50
2018-07-19T21:46:09.918Z,20.40
2018-07-19T21:51:46.803Z,20.30
2018-07-19T21:57:16.209Z,20.30
2018-07-19T22:02:45.757Z,20.20
2018-07-19T22:08:15.081Z,20.10
2018-07-19T22:13:44.494Z,19.90
2018-07-19T22:19:13.728Z,19.80
2018-07-19T22:24:44.096Z,19.70
2018-07-19T22:30:13.867Z,19.60
2018-07-19T22:35:44.208Z,19.40
2018-07-19T22:41:13.612Z,19.30
2018-07-19T22:46:42.880Z,19.20
2018-07-19T22:52:12.250Z,19.10
2018-07-19T22:57:41.533Z,19.00
2018-07-19T23:03:11.902Z,18.90
2018-07-19T23:08:41.091Z,18.70
2018-07-19T23:14:10.340Z,18.60
2018-07-19T23:19:39.629Z,18.60
2018-07-19T23:25:09.015Z,18.50
2018-07-19T23:30:38.534Z,18.40
2018-07-19T23:36:11.790Z,18.30
2018-07-19T23:41:45.416Z,18.30
2018-07-19T23:47:22.539Z,18.10
2018-07-19T23:52:51.837Z,18.10
2018-07-19T23:58:21.135Z,18.10
